Time;durP1;ratioP1;P1;durP2;ratioP2;P2;SDS_P1;SDS_P2;PMS_P1;PMS_P2;Temp;Humidity;BMP_temperature;BMP_pressure;BME280_temperature;BME280_humidity;BME280_pressure;Samples;Min_cycle;Max_cycle;Signal;HPM_P1;HPM_P2
2022/11/16 00:01:29;;;;;;;2.20;2.07;;;6.60;99.90;;;;;;5032662;28;20033;-76
2022/11/16 00:03:58;;;;;;;0.95;0.95;;;6.90;99.90;;;;;;5032480;28;20308;-77
2022/11/16 00:06:24;;;;;;;1.77;1.67;;;7.30;99.90;;;;;;5032569;28;20129;-76
2022/11/16 00:11:39;;;;;;;1.02;1.02;;;6.20;99.90;;;;;;5034186;28;20045;-77
2022/11/16 00:14:05;;;;;;;0.97;0.97;;;;;;;;;;5032452;28;20469;-77
2022/11/16 00:16:32;;;;;;;1.05;1.05;;;6.90;99.90;;;;;;5034010;28;20349;-76
2022/11/16 00:19:04;;;;;;;0.90;0.90;;;6.90;99.90;;;;;;5032022;28;20124;-76
2022/11/16 00:21:30;;;;;;;0.95;0.95;;;6.60;99.90;;;;;;5033557;28;20033;-76
2022/11/16 00:23:56;;;;;;;1.33;1.20;;;6.80;99.90;;;;;;5032144;28;20033;-78
2022/11/16 00:26:22;;;;;;;1.07;1.07;;;6.70;99.90;;;;;;5032200;28;20401;-78
2022/11/16 00:28:49;;;;;;;;;;;7.10;99.90;;;;;;5033754;28;20452;-76
2022/11/16 00:31:15;;;;;;;2.55;2.35;;;;;;;;;;5033619;28;19920;-76
2022/11/16 00:33:40;;;;;;;1.13;1.10;;;7.00;99.90;;;;;;5033862;28;20026;-77
2022/11/16 00:36:09;;;;;;;1.20;1.20;;;7.20;99.90;;;;;;5033555;28;20524;-77
2022/11/16 00:38:35;;;;;;;0.77;0.77;;;6.90;99.90;;;;;;5033464;28;20029;-77
2022/11/16 00:41:01;;;;;;;1.47;1.37;;;;;;;;;;5033217;28;20045;-77
2022/11/16 00:43:28;;;;;;;0.60;0.60;;;7.40;99.90;;;;;;5032981;28;20358;-77
2022/11/16 00:45:54;;;;;;;0.63;0.63;;;7.00;99.90;;;;;;5031799;28;20029;-76
2022/11/16 00:48:19;;;;;;;1.00;1.00;;;7.30;99.90;;;;;;5031578;28;20075;-76
2022/11/16 00:50:45;;;;;;;2.33;2.20;;;7.10;99.90;;;;;;5033035;28;20112;-77
2022/11/16 00:53:15;;;;;;;1.73;1.63;;;6.60;99.90;;;;;;5031820;28;20037;-77
2022/11/16 00:55:42;;;;;;;2.08;1.95;;;6.40;99.90;;;;;;5032860;28;20273;-75
2022/11/16 00:58:08;;;;;;;2.15;1.58;;;;;;;;;;5032451;28;20142;-76
2022/11/16 01:00:34;;;;;;;2.00;1.90;;;;;;;;;;5032777;28;20118;-77
2022/11/16 01:03:00;;;;;;;0.98;0.90;;;;;;;;;;5031517;28;20265;-77
2022/11/16 01:05:25;;;;;;;0.90;0.90;;;7.00;99.90;;;;;;5031746;28;20038;-77
2022/11/16 01:07:51;;;;;;;2.37;2.23;;;;;;;;;;5032464;28;20483;-77
2022/11/16 01:10:22;;;;;;;1.30;1.25;;;6.80;99.90;;;;;;5032775;28;20037;-76
2022/11/16 01:12:49;;;;;;;0.93;0.93;;;6.60;99.90;;;;;;5031083;28;20030;-76
2022/11/16 01:15:17;;;;;;;1.65;1.55;;;6.70;99.90;;;;;;5032903;28;20042;-77
2022/11/16 01:17:43;;;;;;;0.98;0.98;;;6.40;99.90;;;;;;5032513;28;20032;-77
2022/11/16 01:20:14;;;;;;;2.80;2.37;;;6.80;99.90;;;;;;5032846;28;20518;-77
2022/11/16 01:22:40;;;;;;;1.75;1.02;;;6.40;99.90;;;;;;5031200;28;20056;-76
2022/11/16 01:25:07;;;;;;;0.70;0.70;;;6.50;99.90;;;;;;5032097;28;20036;-77
2022/11/16 01:27:33;;;;;;;0.73;0.73;;;6.90;99.90;;;;;;5031108;28;20412;-77
2022/11/16 01:29:59;;;;;;;2.33;2.20;;;6.80;99.90;;;;;;5032398;28;20060;-77
2022/11/16 01:32:25;;;;;;;0.70;0.70;;;6.70;99.90;;;;;;5032456;28;20373;-76
2022/11/16 01:34:53;;;;;;;1.23;1.23;;;6.70;99.90;;;;;;5032174;28;20107;-77
2022/11/16 01:37:19;;;;;;;1.17;1.08;;;6.70;99.90;;;;;;5032231;28;20025;-77
2022/11/16 01:39:45;;;;;;;0.80;0.80;;;;;;;;;;5031882;28;20044;-76
2022/11/16 01:42:22;;;;;;;0.60;0.60;;;6.50;99.90;;;;;;5032572;28;20484;-77
2022/11/16 01:44:47;;;;;;;1.30;1.25;;;6.60;99.90;;;;;;5030304;28;20770;-77
2022/11/16 01:47:15;;;;;;;2.30;2.20;;;6.40;99.90;;;;;;5030547;28;20048;-76
2022/11/16 01:49:48;;;;;;;2.15;2.05;;;6.00;99.90;;;;;;5030192;28;20029;-77
2022/11/16 01:52:19;;;;;;;0.85;0.85;;;6.70;99.90;;;;;;5030350;28;20033;-76
2022/11/16 01:54:48;;;;;;;0.68;0.68;;;6.50;99.90;;;;;;5031943;28;20079;-77
2022/11/16 01:57:19;;;;;;;1.98;1.88;;;6.50;99.90;;;;;;5031746;28;20029;-78
2022/11/16 01:59:48;;;;;;;2.38;2.17;;;6.60;99.90;;;;;;5031689;28;20105;-76
2022/11/16 02:02:17;;;;;;;0.90;0.90;;;6.70;99.90;;;;;;5030070;28;20081;-75
2022/11/16 02:04:44;;;;;;;0.95;0.95;;;6.80;99.90;;;;;;5031352;28;20025;-77
2022/11/16 02:11:01;;;;;;;1.30;1.15;;;6.60;99.90;;;;;;5031755;28;20079;-76
2022/11/16 02:14:14;;;;;;;0.50;0.50;;;6.20;99.90;;;;;;5031625;28;20048;-78
2022/11/16 02:16:57;;;;;;;1.23;1.20;;;6.50;99.90;;;;;;4973542;28;20065;-76
2022/11/16 02:19:32;;;;;;;1.85;1.75;;;6.40;99.90;;;;;;4989409;28;20033;-77
2022/11/16 02:22:28;;;;;;;2.65;1.90;;;6.30;99.90;;;;;;5019085;28;20042;-76
2022/11/16 02:25:14;;;;;;;0.80;0.80;;;6.50;99.90;;;;;;5030036;28;20072;-76
2022/11/16 02:28:11;;;;;;;1.27;1.20;;;6.90;99.90;;;;;;5031551;28;20026;-76
2022/11/16 02:30:44;;;;;;;2.03;1.92;;;6.20;99.90;;;;;;5031513;28;20079;-76
2022/11/16 02:33:15;;;;;;;0.70;0.70;;;6.90;99.90;;;;;;5030796;28;20041;-76
2022/11/16 02:35:55;;;;;;;1.15;1.15;;;6.50;99.90;;;;;;5031351;28;20038;-76
2022/11/16 02:38:26;;;;;;;2.10;2.00;;;6.50;99.90;;;;;;5031062;28;20027;-77
2022/11/16 02:41:00;;;;;;;2.70;2.50;;;6.50;99.90;;;;;;5031164;28;20507;-77
2022/11/16 02:43:34;;;;;;;2.25;2.05;;;6.20;99.90;;;;;;5031397;28;20108;-77
2022/11/16 02:46:07;;;;;;;2.90;1.95;;;6.40;99.90;;;;;;5029705;28;20030;-77
2022/11/16 02:48:36;;;;;;;1.30;1.30;;;6.10;99.90;;;;;;5031272;28;20101;-75
2022/11/16 02:51:05;;;;;;;0.85;0.85;;;6.50;99.90;;;;;;5029906;28;20455;-76
2022/11/16 02:53:35;;;;;;;0.82;0.82;;;6.50;99.90;;;;;;5031011;28;20056;-77
2022/11/16 02:56:01;;;;;;;1.80;1.65;;;6.80;99.90;;;;;;5030643;28;20032;-77
2022/11/16 02:58:28;;;;;;;1.47;1.40;;;6.10;99.90;;;;;;5029173;28;20025;-77
2022/11/16 03:01:06;;;;;;;1.95;1.85;;;6.50;99.90;;;;;;5030792;28;20029;-77
2022/11/16 03:03:35;;;;;;;0.88;0.88;;;6.50;99.90;;;;;;5030513;28;20022;-76
2022/11/16 03:06:06;;;;;;;0.70;0.70;;;6.60;99.90;;;;;;5028915;28;20056;-76
2022/11/16 03:08:36;;;;;;;0.73;0.73;;;6.60;99.90;;;;;;5030795;28;20053;-77
2022/11/16 03:13:51;;;;;;;1.83;1.48;;;6.60;99.90;;;;;;5031062;28;20025;-76
2022/11/16 03:16:23;;;;;;;2.08;1.95;;;6.20;99.90;;;;;;5029197;28;20037;-76
2022/11/16 03:18:51;;;;;;;2.67;2.50;;;7.00;99.90;;;;;;5030593;28;20054;-76
2022/11/16 03:21:16;;;;;;;6.55;2.47;;;7.00;99.90;;;;;;5029256;28;20056;-76
2022/11/16 03:23:43;;;;;;;2.67;2.47;;;6.30;99.90;;;;;;5029148;28;20029;-75
2022/11/16 03:26:12;;;;;;;0.70;0.70;;;6.50;99.90;;;;;;5030977;28;20048;-75
2022/11/16 03:28:55;;;;;;;1.77;1.67;;;6.40;99.90;;;;;;5030524;28;20061;-77
2022/11/16 03:31:28;;;;;;;3.42;3.17;;;6.50;99.90;;;;;;5029126;28;20033;-76
2022/11/16 03:33:56;;;;;;;1.80;1.42;;;6.30;99.90;;;;;;5030347;28;20013;-77
2022/11/16 03:36:30;;;;;;;1.63;1.52;;;6.20;99.90;;;;;;5030521;28;20095;-75
2022/11/16 03:39:01;;;;;;;1.52;1.42;;;6.70;99.90;;;;;;5028609;28;20044;-76
2022/11/16 03:41:29;;;;;;;2.45;2.30;;;6.40;99.90;;;;;;5029080;28;20029;-78
2022/11/16 03:43:56;;;;;;;1.48;1.45;;;6.20;99.90;;;;;;5028999;28;20127;-75
2022/11/16 03:46:22;;;;;;;2.42;1.88;;;6.90;99.90;;;;;;5032424;28;20047;-75
2022/11/16 03:48:54;;;;;;;1.43;1.33;;;6.70;99.90;;;;;;5032338;28;20458;-76
2022/11/16 03:51:20;;;;;;;1.48;1.08;;;6.10;99.90;;;;;;5033814;28;20426;-77
2022/11/16 03:53:46;;;;;;;3.47;3.20;;;;;;;;;;5032239;28;20079;-77
2022/11/16 03:56:11;;;;;;;2.73;2.57;;;6.60;99.90;;;;;;5032629;28;20029;-77
2022/11/16 03:58:37;;;;;;;2.73;2.57;;;6.40;99.90;;;;;;5033782;28;20258;-75
2022/11/16 04:01:03;;;;;;;1.17;1.07;;;6.40;99.90;;;;;;5033883;28;20041;-76
2022/11/16 04:03:29;;;;;;;0.70;0.70;;;;;;;;;;5033647;28;20101;-76
2022/11/16 04:25:42;;;;;;;1.73;1.63;;;6.80;99.90;;;;;;5033759;28;20095;-77
2022/11/16 04:28:17;;;;;;;1.27;1.27;;;6.40;99.90;;;;;;5031763;28;20091;-77
2022/11/16 04:39:01;;;;;;;2.45;2.15;;;;;;;;;;5032814;28;20135;-76
2022/11/16 04:44:11;;;;;;;0.73;0.73;;;6.50;99.90;;;;;;5033122;28;20057;-77
2022/11/16 04:49:21;;;;;;;2.67;2.50;;;6.30;99.90;;;;;;5034770;28;20445;-76
2022/11/16 04:51:47;;;;;;;3.73;2.30;;;6.50;99.90;;;;;;5033085;28;20033;-77
2022/11/16 04:54:12;;;;;;;12.00;1.67;;;6.60;99.90;;;;;;5032968;28;20032;-76
2022/11/16 04:56:38;;;;;;;2.10;2.00;;;;;;;;;;5032336;28;20479;-77
2022/11/16 04:59:04;;;;;;;0.80;0.80;;;;;;;;;;5030750;28;20026;-77
2022/11/16 05:04:14;;;;;;;1.38;1.27;;;;;;;;;;5032312;28;20045;-76
2022/11/16 05:06:40;;;;;;;2.63;1.33;;;7.00;99.90;;;;;;5030456;28;20025;-77
2022/11/16 05:09:05;;;;;;;2.00;1.90;;;6.70;99.90;;;;;;5032086;28;20531;-76
2022/11/16 05:11:31;;;;;;;0.50;0.50;;;;;;;;;;5030683;28;20033;-75
2022/11/16 05:13:57;;;;;;;0.73;0.73;;;6.90;99.90;;;;;;5031895;28;20037;-76
2022/11/16 05:16:22;;;;;;;3.53;2.20;;;6.10;99.90;;;;;;5030572;28;20733;-77
2022/11/16 05:20:59;;;;;;;0.80;0.80;;;6.60;99.90;;;;;;5030361;28;20065;-77
2022/11/16 05:21:34;;;;;;;0.68;0.68;;;6.60;99.90;;;;;;5032122;28;20033;-77
2022/11/16 05:26:43;;;;;;;1.15;1.15;;;6.60;99.90;;;;;;5031980;28;20040;-77
2022/11/16 05:29:09;;;;;;;2.50;2.00;;;6.60;99.90;;;;;;5031465;28;20034;-76
2022/11/16 05:31:34;;;;;;;0.87;0.83;;;6.60;99.90;;;;;;5030232;28;20049;-78
2022/11/16 05:34:00;;;;;;;2.07;1.43;;;6.60;99.90;;;;;;5031587;28;20021;-76
2022/11/16 05:36:25;;;;;;;1.03;1.03;;;6.60;99.90;;;;;;5031706;28;20117;-78
2022/11/16 05:38:51;;;;;;;1.03;1.03;;;6.40;99.90;;;;;;5031318;28;20048;-76
2022/11/16 05:41:17;;;;;;;1.87;1.77;;;6.70;99.90;;;;;;5030012;28;20029;-77
2022/11/16 05:43:42;;;;;;;7.03;4.30;;;5.50;99.90;;;;;;5029872;28;20075;-76
2022/11/16 05:46:08;;;;;;;1.23;1.23;;;6.60;99.90;;;;;;5031705;28;20108;-77
2022/11/16 05:48:33;;;;;;;1.50;1.40;;;6.60;99.90;;;;;;5030160;28;20067;-76
2022/11/16 05:50:59;;;;;;;1.27;1.23;;;6.90;99.90;;;;;;5031140;28;20483;-78
2022/11/16 05:53:25;;;;;;;1.10;1.10;;;6.50;99.90;;;;;;5030804;28;20472;-65
2022/11/16 05:55:51;;;;;;;0.60;0.60;;;;;;;;;;5030617;28;20412;-66
2022/11/16 05:58:17;;;;;;;5.38;2.95;;;6.60;99.90;;;;;;5029341;28;20028;-66
2022/11/16 06:00:45;;;;;;;2.93;2.73;;;6.70;99.90;;;;;;5030304;28;20456;-66
2022/11/16 06:03:11;;;;;;;0.85;0.85;;;6.80;99.90;;;;;;5028920;28;20041;-66
2022/11/16 06:05:36;;;;;;;1.80;1.70;;;6.70;99.90;;;;;;5030724;28;20369;-66
2022/11/16 06:08:02;;;;;;;3.70;1.83;;;6.80;99.90;;;;;;5029609;28;20053;-67
2022/11/16 06:10:27;;;;;;;1.17;1.13;;;6.70;99.90;;;;;;5030848;28;20037;-65
2022/11/16 06:12:53;;;;;;;1.87;1.77;;;6.70;99.90;;;;;;5030140;28;20156;-68
2022/11/16 06:15:18;;;;;;;1.03;1.03;;;6.70;99.90;;;;;;5012417;28;20072;-65
2022/11/16 06:17:44;;;;;;;0.60;0.60;;;6.80;99.90;;;;;;5029744;28;20567;-66
2022/11/16 06:20:10;;;;;;;1.80;1.70;;;6.70;99.90;;;;;;5029944;28;20041;-66
2022/11/16 06:22:36;;;;;;;0.88;0.88;;;;;;;;;;5030006;28;20093;-67
2022/11/16 06:25:03;;;;;;;0.90;0.90;;;6.80;99.90;;;;;;5029757;28;20112;-66
2022/11/16 06:27:29;;;;;;;;;;;6.80;99.90;;;;;;5030958;28;20313;-67
2022/11/16 06:29:54;;;;;;;2.42;2.22;;;6.00;99.90;;;;;;5030070;28;19917;-65
2022/11/16 06:32:20;;;;;;;1.10;1.03;;;;;;;;;;5029894;28;20040;-66
2022/11/16 06:34:46;;;;;;;1.25;1.25;;;6.80;99.90;;;;;;5030011;28;20022;-66
2022/11/16 06:37:12;;;;;;;4.23;1.90;;;6.90;99.90;;;;;;5029198;28;20033;-66
2022/11/16 06:39:37;;;;;;;2.77;2.30;;;6.80;99.90;;;;;;5029727;28;20567;-67
2022/11/16 06:42:03;;;;;;;0.60;0.60;;;6.80;99.90;;;;;;5028840;28;20512;-66
2022/11/16 06:44:28;;;;;;;1.63;1.53;;;6.80;99.90;;;;;;5030046;28;20018;-66
2022/11/16 06:46:54;;;;;;;0.50;0.50;;;6.80;99.90;;;;;;5030700;28;20034;-66
2022/11/16 06:49:19;;;;;;;2.03;1.93;;;6.80;99.90;;;;;;5029217;28;20142;-67
2022/11/16 06:51:45;;;;;;;1.70;1.60;;;6.80;99.90;;;;;;5029174;28;20409;-66
2022/11/16 06:54:10;;;;;;;0.90;0.90;;;6.70;99.90;;;;;;5029938;28;20366;-66
2022/11/16 06:56:36;;;;;;;1.47;1.37;;;6.80;99.90;;;;;;5030002;28;20380;-68
2022/11/16 06:59:02;;;;;;;1.20;1.20;;;6.70;99.90;;;;;;5030322;28;20481;-68
2022/11/16 07:01:27;;;;;;;1.90;1.80;;;6.70;99.90;;;;;;5029598;28;20026;-66
2022/11/16 07:03:53;;;;;;;1.53;1.43;;;6.70;99.90;;;;;;5029170;28;20025;-67
2022/11/16 07:06:18;;;;;;;1.80;1.70;;;6.70;99.90;;;;;;5029695;28;20025;-67
2022/11/16 07:08:44;;;;;;;1.50;1.40;;;6.70;99.90;;;;;;5028065;28;20100;-67
2022/11/16 07:11:10;;;;;;;0.50;0.50;;;6.70;99.90;;;;;;5027944;28;20036;-66
2022/11/16 07:13:36;;;;;;;1.53;1.43;;;6.70;99.90;;;;;;5029879;28;20033;-66
2022/11/16 07:16:04;;;;;;;1.95;1.50;;;6.60;99.90;;;;;;5029730;28;20742;-67
2022/11/16 07:18:40;;;;;;;1.75;1.65;;;6.60;99.90;;;;;;5031267;28;20511;-66
2022/11/16 07:21:07;;;;;;;1.52;1.42;;;6.50;99.90;;;;;;5034154;28;20116;-67
2022/11/16 07:23:33;;;;;;;1.92;1.30;;;6.50;99.90;;;;;;5032537;28;20025;-67
2022/11/16 07:26:00;;;;;;;0.70;0.70;;;6.10;99.90;;;;;;5034007;28;20118;-67
2022/11/16 07:28:28;;;;;;;1.15;1.08;;;6.40;99.90;;;;;;5033520;28;20029;-66
2022/11/16 07:30:54;;;;;;;2.53;2.33;;;6.40;99.90;;;;;;5033006;28;20033;-68
2022/11/16 07:33:19;;;;;;;2.17;2.00;;;6.40;99.90;;;;;;5034159;28;20166;-66
2022/11/16 07:35:45;;;;;;;1.80;1.70;;;6.40;99.90;;;;;;5033723;28;20275;-66
2022/11/16 07:38:10;;;;;;;1.47;1.37;;;6.40;99.90;;;;;;5033273;28;20128;-67
2022/11/16 07:40:36;;;;;;;0.60;0.60;;;6.40;99.90;;;;;;5033432;28;20076;-66
2022/11/16 07:43:02;;;;;;;0.60;0.60;;;6.30;99.90;;;;;;5033445;28;20022;-67
2022/11/16 07:45:28;;;;;;;3.10;1.90;;;6.30;99.90;;;;;;5032520;28;20281;-66
2022/11/16 07:47:53;;;;;;;1.15;1.15;;;6.30;99.90;;;;;;5033329;28;20025;-66
2022/11/16 07:50:19;;;;;;;1.77;1.67;;;6.30;99.90;;;;;;5033090;28;20512;-69
2022/11/16 07:52:45;;;;;;;1.40;1.03;;;6.30;99.90;;;;;;5033090;28;20029;-68
2022/11/16 07:55:13;;;;;;;1.73;1.63;;;6.40;99.90;;;;;;5033469;28;20668;-68
2022/11/16 07:57:39;;;;;;;0.98;0.98;;;6.40;99.90;;;;;;5033526;28;20021;-67
2022/11/16 08:00:06;;;;;;;1.50;1.40;;;6.40;99.90;;;;;;5033373;28;20084;-67
2022/11/16 08:02:31;;;;;;;2.33;2.15;;;6.30;99.90;;;;;;5033136;28;20116;-67
2022/11/16 08:04:57;;;;;;;2.63;2.43;;;6.30;99.90;;;;;;5030974;28;20535;-68
2022/11/16 08:07:22;;;;;;;0.37;0.37;;;8.80;99.90;;;;;;5032274;28;20390;-67
2022/11/16 08:09:48;;;;;;;3.00;1.27;;;6.30;99.90;;;;;;5031314;28;20036;-66
2022/11/16 08:12:15;;;;;;;1.42;1.38;;;6.30;99.90;;;;;;5023802;28;20042;-67
2022/11/16 08:14:40;;;;;;;0.82;0.82;;;6.30;99.90;;;;;;5021520;28;20030;-65
2022/11/16 08:17:07;;;;;;;1.10;1.00;;;6.30;99.90;;;;;;5023362;28;20038;-66
2022/11/16 08:19:33;;;;;;;0.35;0.35;;;6.30;99.90;;;;;;5020253;28;20030;-66
2022/11/16 08:21:59;;;;;;;0.65;0.65;;;6.30;99.90;;;;;;5017395;28;20084;-66
2022/11/16 08:24:24;;;;;;;0.70;0.70;;;6.30;99.90;;;;;;5021621;28;20578;-67
2022/11/16 08:26:50;;;;;;;0.40;0.40;;;6.30;99.90;;;;;;5020402;28;20056;-67
2022/11/16 08:29:15;;;;;;;0.60;0.60;;;6.20;99.90;;;;;;5025398;28;20033;-66
2022/11/16 08:31:42;;;;;;;2.40;1.70;;;6.20;99.90;;;;;;5027839;28;20045;-67
2022/11/16 08:34:08;;;;;;;;;;;6.20;99.90;;;;;;5022314;28;20053;-67
2022/11/16 08:36:33;;;;;;;1.38;1.08;;;6.20;99.90;;;;;;5021950;28;19936;-66
2022/11/16 08:38:59;;;;;;;0.57;0.57;;;6.20;99.90;;;;;;5023345;28;20030;-67
2022/11/16 08:41:24;;;;;;;0.57;0.57;;;6.10;99.90;;;;;;5022379;28;20353;-67
2022/11/16 08:43:52;;;;;;;0.30;0.30;;;6.10;99.90;;;;;;5017516;28;20083;-67
2022/11/16 08:46:17;;;;;;;1.52;1.48;;;6.00;99.90;;;;;;5031067;28;20117;-66
2022/11/16 08:48:44;;;;;;;0.40;0.40;;;6.10;99.90;;;;;;5030715;28;20108;-67
2022/11/16 08:51:11;;;;;;;;;;;6.10;99.90;;;;;;5031828;28;20080;-67
2022/11/16 08:53:37;;;;;;;0.30;0.30;;;6.10;99.90;;;;;;5025741;28;19941;-65
2022/11/16 08:56:11;;;;;;;1.90;1.80;;;6.00;99.90;;;;;;5029453;28;20114;-66
2022/11/16 08:58:37;;;;;;;0.82;0.82;;;6.00;99.90;;;;;;5028972;28;20372;-66
2022/11/16 09:01:11;;;;;;;0.43;0.43;;;6.00;99.90;;;;;;5028586;28;20033;-67
2022/11/16 09:03:37;;;;;;;2.95;0.93;;;6.10;99.90;;;;;;5029605;28;20552;-66
2022/11/16 09:06:03;;;;;;;0.65;0.65;;;5.90;99.90;;;;;;5027716;28;20669;-66
2022/11/16 09:08:29;;;;;;;0.40;0.40;;;5.90;99.90;;;;;;5030642;28;20496;-67
2022/11/16 09:10:55;;;;;;;1.93;1.83;;;6.00;99.90;;;;;;5030022;28;20048;-66
2022/11/16 09:13:20;;;;;;;0.50;0.50;;;8.30;99.90;;;;;;5021307;28;20109;-67
2022/11/16 09:15:46;;;;;;;0.40;0.40;;;6.00;99.90;;;;;;5020385;28;20041;-67
2022/11/16 09:18:11;;;;;;;0.40;0.40;;;6.00;99.90;;;;;;5024418;28;20044;-66
2022/11/16 09:20:37;;;;;;;1.27;1.20;;;;;;;;;;5026258;28;20112;-66
2022/11/16 09:23:03;;;;;;;0.53;0.53;;;5.80;99.90;;;;;;5029818;28;20026;-67
2022/11/16 09:25:28;;;;;;;0.67;0.67;;;6.00;99.90;;;;;;5030447;28;20108;-66
2022/11/16 09:27:54;;;;;;;0.50;0.50;;;6.00;99.90;;;;;;5028855;28;20033;-66
2022/11/16 09:30:20;;;;;;;0.85;0.85;;;6.00;99.90;;;;;;5028727;28;20106;-67
2022/11/16 09:32:45;;;;;;;0.47;0.47;;;6.00;99.90;;;;;;5029893;28;20071;-66
2022/11/16 09:35:11;;;;;;;0.70;0.70;;;;;;;;;;5025686;28;20034;-66
2022/11/16 09:37:37;;;;;;;0.98;0.98;;;6.10;99.90;;;;;;5027494;28;20028;-65
2022/11/16 09:40:03;;;;;;;0.67;0.67;;;6.10;99.90;;;;;;5028317;28;20037;-65
2022/11/16 09:42:50;;;;;;;0.73;0.73;;;6.10;99.90;;;;;;5026968;28;20083;-65
2022/11/16 09:45:41;;;;;;;1.35;1.25;;;6.20;99.90;;;;;;5030066;28;20030;-65
2022/11/16 09:48:11;;;;;;;6.45;5.15;;;6.30;99.90;;;;;;5029353;28;20018;-65
2022/11/16 09:51:12;;;;;;;1.08;0.93;;;6.30;99.90;;;;;;5029487;28;20469;-64
2022/11/16 09:53:59;;;;;;;1.23;0.85;;;6.40;99.90;;;;;;5009204;28;20107;-64
2022/11/16 09:56:27;;;;;;;0.65;0.65;;;6.40;99.90;;;;;;5031472;28;20464;-65
2022/11/16 09:59:07;;;;;;;0.30;0.30;;;6.40;99.90;;;;;;5028871;28;20025;-63
2022/11/16 10:01:51;;;;;;;0.73;0.73;;;6.50;99.90;;;;;;5031019;28;20443;-65
2022/11/16 10:04:47;;;;;;;0.50;0.50;;;6.50;99.90;;;;;;5028896;28;20105;-64
2022/11/16 10:07:24;;;;;;;1.80;1.42;;;6.50;99.90;;;;;;5029579;28;20160;-64
2022/11/16 10:09:50;;;;;;;0.63;0.63;;;6.50;99.90;;;;;;5029409;28;20464;-66
2022/11/16 10:12:26;;;;;;;0.80;0.80;;;6.40;99.90;;;;;;5028299;28;20157;-68
2022/11/16 10:15:11;;;;;;;0.65;0.65;;;6.50;99.90;;;;;;5023526;28;20115;-67
2022/11/16 10:17:57;;;;;;;1.10;1.10;;;6.50;99.90;;;;;;5022521;28;20611;-68
2022/11/16 10:20:45;;;;;;;1.02;1.02;;;6.50;99.90;;;;;;5020169;28;20080;-67
2022/11/16 10:23:22;;;;;;;1.40;1.35;;;6.40;99.90;;;;;;5010965;28;20121;-68
2022/11/16 10:25:52;;;;;;;;;;;6.30;99.90;;;;;;5010896;28;20026;-68
2022/11/16 10:28:32;;;;;;;0.35;0.35;;;6.30;99.90;;;;;;5028444;28;19928;-67
2022/11/16 10:31:37;;;;;;;0.40;0.40;;;6.30;99.90;;;;;;5011051;28;20041;-67
2022/11/16 10:34:07;;;;;;;0.30;0.30;;;6.20;99.90;;;;;;5019762;28;20713;-67
2022/11/16 10:36:36;;;;;;;0.50;0.50;;;6.20;99.90;;;;;;5019828;28;20559;-67
2022/11/16 10:39:09;;;;;;;0.70;0.70;;;6.20;99.90;;;;;;5021748;28;20029;-68
2022/11/16 10:41:43;;;;;;;0.80;0.80;;;6.20;99.90;;;;;;5018855;28;20049;-67
2022/11/16 10:44:30;;;;;;;0.52;0.52;;;6.20;99.90;;;;;;5023901;28;20029;-68
2022/11/16 10:47:02;;;;;;;0.30;0.30;;;6.40;99.90;;;;;;5027433;28;20032;-67
2022/11/16 10:49:38;;;;;;;0.98;0.63;;;6.30;99.90;;;;;;5029490;28;20071;-67
2022/11/16 10:52:04;;;;;;;1.80;0.95;;;6.30;99.90;;;;;;5030173;28;20499;-67
2022/11/16 10:54:30;;;;;;;1.20;1.20;;;6.40;99.90;;;;;;5031888;28;20091;-67
2022/11/16 10:57:04;;;;;;;0.87;0.83;;;6.40;99.90;;;;;;5035694;28;20033;-68
2022/11/16 10:59:45;;;;;;;6.32;1.25;;;6.40;99.90;;;;;;5031391;28;20375;-68
2022/11/16 11:02:33;;;;;;;1.85;1.75;;;6.50;99.90;;;;;;5025483;28;20021;-68
2022/11/16 11:05:14;;;;;;;0.80;0.80;;;6.40;99.90;;;;;;5033560;28;20090;-66
2022/11/16 11:07:49;;;;;;;0.45;0.45;;;6.50;99.90;;;;;;5034401;28;20125;-68
2022/11/16 11:10:29;;;;;;;1.15;1.13;;;6.50;99.90;;;;;;5035049;28;20127;-69
2022/11/16 11:13:19;;;;;;;0.63;0.63;;;6.40;99.90;;;;;;5034670;28;20037;-71
2022/11/16 11:15:46;;;;;;;3.40;2.28;;;6.40;99.90;;;;;;5034801;28;20038;-70
2022/11/16 11:18:28;;;;;;;1.45;1.38;;;6.30;99.90;;;;;;5026090;28;20381;-68
2022/11/16 11:21:11;;;;;;;1.05;0.95;;;6.30;99.90;;;;;;5033080;28;20029;-67
2022/11/16 11:23:47;;;;;;;0.30;0.30;;;6.50;99.90;;;;;;5034546;28;20029;-66
2022/11/16 11:26:35;;;;;;;0.50;0.50;;;6.30;99.90;;;;;;5029938;28;20071;-68
2022/11/16 11:29:05;;;;;;;4.10;2.40;;;6.20;99.90;;;;;;5029245;28;20116;-67
2022/11/16 11:31:46;;;;;;;1.90;1.80;;;6.20;99.90;;;;;;5027030;28;20377;-68
2022/11/16 11:34:18;;;;;;;2.30;1.38;;;6.10;99.90;;;;;;5033461;28;20033;-66
2022/11/16 11:36:55;;;;;;;1.20;1.17;;;6.10;99.90;;;;;;5031499;28;20017;-67
2022/11/16 11:39:20;;;;;;;1.67;1.58;;;6.10;99.90;;;;;;5033187;28;20042;-65
2022/11/16 11:42:19;;;;;;;0.60;0.60;;;6.00;99.90;;;;;;5047114;28;20048;-67
2022/11/16 11:45:06;;;;;;;0.55;0.55;;;6.00;99.90;;;;;;5034551;28;20103;-66
2022/11/16 11:47:52;;;;;;;2.13;1.47;;;6.10;99.90;;;;;;5029732;28;20035;-67
2022/11/16 11:50:44;;;;;;;1.58;1.48;;;6.20;99.90;;;;;;5029117;28;20040;-67
2022/11/16 11:53:21;;;;;;;2.70;1.58;;;6.50;99.90;;;;;;5031058;28;20033;-67
2022/11/16 11:55:54;;;;;;;0.82;0.82;;;6.20;99.90;;;;;;5029781;28;20033;-68
2022/11/16 11:58:29;;;;;;;1.23;1.20;;;6.10;99.90;;;;;;5028929;28;20048;-68
2022/11/16 12:01:03;;;;;;;1.30;1.23;;;6.10;99.90;;;;;;5032883;28;20038;-66
2022/11/16 12:03:47;;;;;;;1.05;0.98;;;6.10;99.90;;;;;;5032551;28;20030;-68
2022/11/16 12:06:32;;;;;;;1.17;1.17;;;6.10;99.90;;;;;;5030615;28;20033;-67
2022/11/16 12:09:15;;;;;;;0.40;0.40;;;6.10;99.90;;;;;;5032373;28;20038;-69
2022/11/16 12:11:53;;;;;;;3.03;2.20;;;6.00;99.90;;;;;;5019493;28;20364;-67
2022/11/16 12:14:54;;;;;;;0.65;0.65;;;5.90;99.90;;;;;;5030131;28;20026;-68
2022/11/16 12:17:38;;;;;;;2.45;2.25;;;5.90;99.90;;;;;;5030518;28;20033;-67
2022/11/16 12:20:25;;;;;;;1.08;1.08;;;5.90;99.90;;;;;;5021829;28;20418;-67
2022/11/16 12:23:03;;;;;;;0.55;0.55;;;6.00;99.90;;;;;;5030546;28;20101;-67
2022/11/16 12:25:43;;;;;;;0.50;0.50;;;5.90;99.90;;;;;;5029055;28;20124;-67
2022/11/16 12:29:00;;;;;;;0.40;0.40;;;5.80;99.90;;;;;;5031959;28;20092;-68
2022/11/16 12:31:42;;;;;;;0.40;0.40;;;5.80;99.90;;;;;;5020392;28;20103;-67
2022/11/16 12:34:14;;;;;;;0.80;0.80;;;5.80;99.90;;;;;;5030585;28;20355;-67
2022/11/16 12:37:09;;;;;;;0.85;0.85;;;5.80;99.90;;;;;;5031248;28;20036;-67
2022/11/16 12:39:43;;;;;;;0.70;0.70;;;5.80;99.90;;;;;;5033655;28;20037;-67
2022/11/16 12:42:12;;;;;;;0.82;0.82;;;5.80;99.90;;;;;;5030520;28;20038;-67
2022/11/16 12:45:17;;;;;;;0.60;0.60;;;6.10;99.90;;;;;;5032101;28;20029;-67
2022/11/16 12:48:10;;;;;;;0.30;0.30;;;5.80;99.90;;;;;;5029647;28;20441;-68
2022/11/16 12:50:50;;;;;;;0.95;0.77;;;6.10;99.90;;;;;;5031342;28;20645;-68
2022/11/16 12:54:04;;;;;;;0.30;0.30;;;5.80;99.90;;;;;;5033833;28;20029;-68
2022/11/16 12:56:50;;;;;;;0.60;0.60;;;5.80;99.90;;;;;;5013626;28;20038;-66
2022/11/16 12:59:26;;;;;;;0.30;0.30;;;5.80;99.90;;;;;;5032107;28;20037;-67
2022/11/16 13:02:07;;;;;;;0.40;0.40;;;5.80;99.90;;;;;;5040926;28;20037;-67
2022/11/16 13:04:40;;;;;;;0.80;0.80;;;5.90;99.90;;;;;;5032613;28;20025;-68
2022/11/16 13:07:18;;;;;;;0.38;0.38;;;5.70;99.90;;;;;;5030633;28;20121;-67
2022/11/16 13:09:53;;;;;;;0.70;0.70;;;5.70;99.90;;;;;;5023230;28;20038;-68
2022/11/16 13:12:22;;;;;;;0.50;0.50;;;5.70;99.90;;;;;;5026738;28;20488;-68
2022/11/16 13:14:51;;;;;;;0.57;0.57;;;5.80;99.90;;;;;;5027816;28;20026;-67
2022/11/16 13:17:27;;;;;;;0.40;0.40;;;5.70;99.90;;;;;;5021943;28;20030;-68
2022/11/16 13:20:11;;;;;;;1.10;1.10;;;5.70;99.90;;;;;;5025733;28;20029;-67
2022/11/16 13:22:41;;;;;;;0.93;0.93;;;5.60;99.90;;;;;;5026385;28;20048;-68
2022/11/16 13:25:58;;;;;;;0.40;0.40;;;5.70;99.90;;;;;;5028937;28;20384;-69
2022/11/16 13:28:42;;;;;;;1.15;1.15;;;5.40;99.90;;;;;;5018654;28;20053;-68
2022/11/16 13:31:34;;;;;;;0.60;0.60;;;5.60;99.90;;;;;;5030719;28;20037;-69
2022/11/16 13:34:11;;;;;;;1.27;1.20;;;5.60;99.90;;;;;;5020441;28;20034;-67
2022/11/16 13:36:44;;;;;;;;;;;5.60;99.90;;;;;;5034049;28;20059;-68
2022/11/16 13:39:19;;;;;;;0.93;0.93;;;5.70;99.90;;;;;;5029264;28;20000;-70
2022/11/16 13:42:06;;;;;;;0.30;0.30;;;5.60;99.90;;;;;;5028755;28;20107;-66
2022/11/16 13:44:32;;;;;;;0.50;0.50;;;5.60;99.90;;;;;;5028344;28;20473;-68
2022/11/16 13:47:29;;;;;;;0.95;0.95;;;5.70;99.90;;;;;;5030129;28;20358;-67
2022/11/16 13:49:58;;;;;;;0.40;0.40;;;5.70;99.90;;;;;;5035161;28;20036;-68
2022/11/16 13:52:43;;;;;;;0.85;0.85;;;5.70;99.90;;;;;;5029842;28;20052;-68
2022/11/16 13:55:29;;;;;;;0.77;0.77;;;5.60;99.90;;;;;;5011483;28;20084;-67
2022/11/16 13:57:58;;;;;;;0.98;0.95;;;5.50;99.90;;;;;;5014659;28;20030;-67
2022/11/16 14:00:35;;;;;;;0.35;0.35;;;5.50;99.90;;;;;;5031256;28;20457;-67
2022/11/16 14:03:15;;;;;;;0.47;0.47;;;5.50;99.90;;;;;;5029283;28;20025;-68
2022/11/16 14:05:48;;;;;;;0.40;0.40;;;5.50;99.90;;;;;;5028906;28;20488;-68
2022/11/16 14:08:25;;;;;;;14.00;12.35;;;5.50;99.90;;;;;;5028607;28;20045;-67
2022/11/16 14:10:51;;;;;;;0.52;0.52;;;5.50;99.90;;;;;;5030428;28;20095;-68
2022/11/16 14:13:45;;;;;;;1.13;1.10;;;5.40;99.90;;;;;;5025264;28;20033;-67
2022/11/16 14:16:14;;;;;;;0.40;0.40;;;5.50;99.90;;;;;;5025809;28;20076;-67
2022/11/16 14:18:40;;;;;;;0.32;0.32;;;5.40;99.90;;;;;;5030440;28;20029;-68